sensor_id;sensor_type;location;lat;lon;timestamp;pressure;altitude;pressure_sealevel;temperature;humidity
56928;BME280;60850;52.502;13.426;2023-02-17T00:00:24;101519.72;;;9.19;100.00
56928;BME280;60850;52.502;13.426;2023-02-17T00:03:11;101526.81;;;9.19;100.00
56928;BME280;60850;52.502;13.426;2023-02-17T00:05:39;101528.56;;;9.21;100.00
56928;BME280;60850;52.502;13.426;2023-02-17T00:10:35;101513.47;;;9.25;100.00
56928;BME280;60850;52.502;13.426;2023-02-17T00:13:03;101511.69;;;9.22;100.00
56928;BME280;60850;52.502;13.426;2023-02-17T00:15:30;101502.00;;;9.15;100.00
56928;BME280;60850;52.502;13.426;2023-02-17T00:17:57;101498.53;;;9.10;100.00
56928;BME280;60850;52.502;13.426;2023-02-17T00:20:24;101493.22;;;9.07;100.00
56928;BME280;60850;52.502;13.426;2023-02-17T00:22:52;101491.44;;;9.06;100.00
56928;BME280;60850;52.502;13.426;2023-02-17T00:25:19;101487.94;;;8.99;100.00
56928;BME280;60850;52.502;13.426;2023-02-17T00:27:46;101471.97;;;9.01;100.00
56928;BME280;60850;52.502;13.426;2023-02-17T00:30:13;101484.41;;;8.99;100.00
56928;BME280;60850;52.502;13.426;2023-02-17T00:32:40;101477.34;;;8.95;100.00
56928;BME280;60850;52.502;13.426;2023-02-17T00:35:07;101466.69;;;8.95;100.00
56928;BME280;60850;52.502;13.426;2023-02-17T00:37:34;101473.81;;;8.96;100.00
56928;BME280;60850;52.502;13.426;2023-02-17T00:40:03;101475.53;;;9.00;100.00
56928;BME280;60850;52.502;13.426;2023-02-17T00:42:30;101471.09;;;9.00;100.00
56928;BME280;60850;52.502;13.426;2023-02-17T00:44:57;101470.22;;;9.03;100.00
56928;BME280;60850;52.502;13.426;2023-02-17T00:47:24;101473.72;;;9.02;100.00
56928;BME280;60850;52.502;13.426;2023-02-17T00:49:50;101470.22;;;9.00;100.00
56928;BME280;60850;52.502;13.426;2023-02-17T00:52:18;101468.41;;;9.02;100.00
56928;BME280;60850;52.502;13.426;2023-02-17T00:54:44;101463.13;;;9.00;100.00
56928;BME280;60850;52.502;13.426;2023-02-17T00:57:13;101459.56;;;9.00;100.00
56928;BME280;60850;52.502;13.426;2023-02-17T00:59:40;101448.94;;;9.00;100.00
56928;BME280;60850;52.502;13.426;2023-02-17T01:02:07;101445.41;;;8.99;100.00
56928;BME280;60850;52.502;13.426;2023-02-17T01:04:34;101444.50;;;9.00;100.00
56928;BME280;60850;52.502;13.426;2023-02-17T01:07:01;101440.09;;;8.98;100.00
56928;BME280;60850;52.502;13.426;2023-02-17T01:09:28;101437.41;;;9.01;100.00
56928;BME280;60850;52.502;13.426;2023-02-17T01:11:55;101425.84;;;9.02;100.00
56928;BME280;60850;52.502;13.426;2023-02-17T01:14:25;101434.75;;;8.99;100.00
56928;BME280;60850;52.502;13.426;2023-02-17T01:16:52;101423.28;;;8.93;100.00
56928;BME280;60850;52.502;13.426;2023-02-17T01:19:19;101427.72;;;8.92;100.00
56928;BME280;60850;52.502;13.426;2023-02-17T01:21:46;101422.44;;;8.89;100.00
56928;BME280;60850;52.502;13.426;2023-02-17T01:24:13;101416.22;;;8.90;100.00
56928;BME280;60850;52.502;13.426;2023-02-17T01:26:40;101415.34;;;8.91;100.00
56928;BME280;60850;52.502;13.426;2023-02-17T01:29:07;101415.34;;;8.91;100.00
56928;BME280;60850;52.502;13.426;2023-02-17T01:31:36;101409.13;;;8.91;100.00
56928;BME280;60850;52.502;13.426;2023-02-17T01:34:04;101401.16;;;8.91;100.00
56928;BME280;60850;52.502;13.426;2023-02-17T01:36:31;101397.63;;;8.90;100.00
56928;BME280;60850;52.502;13.426;2023-02-17T01:38:59;101390.47;;;8.94;100.00
56928;BME280;60850;52.502;13.426;2023-02-17T01:41:26;101393.16;;;8.95;100.00
56928;BME280;60850;52.502;13.426;2023-02-17T01:44:09;101398.47;;;8.92;100.00
56928;BME280;60850;52.502;13.426;2023-02-17T01:46:39;101394.03;;;8.93;100.00
56928;BME280;60850;52.502;13.426;2023-02-17T01:49:14;101392.28;;;8.92;100.00
56928;BME280;60850;52.502;13.426;2023-02-17T01:51:45;101394.09;;;8.90;100.00
56928;BME280;60850;52.502;13.426;2023-02-17T01:54:18;101386.97;;;8.92;100.00
56928;BME280;60850;52.502;13.426;2023-02-17T01:56:47;101384.25;;;8.95;100.00
56928;BME280;60850;52.502;13.426;2023-02-17T01:59:16;101383.44;;;8.90;100.00
56928;BME280;60850;52.502;13.426;2023-02-17T02:01:46;101383.44;;;8.90;100.00
56928;BME280;60850;52.502;13.426;2023-02-17T02:04:16;101382.50;;;8.97;100.00
56928;BME280;60850;52.502;13.426;2023-02-17T02:06:44;101379.00;;;8.90;100.00
56928;BME280;60850;52.502;13.426;2023-02-17T02:09:15;101372.84;;;8.88;100.00
56928;BME280;60850;52.502;13.426;2023-02-17T02:11:47;101368.44;;;8.83;100.00
56928;BME280;60850;52.502;13.426;2023-02-17T02:14:14;101352.53;;;8.81;100.00
56928;BME280;60850;52.502;13.426;2023-02-17T02:16:48;101358.69;;;8.80;100.00
56928;BME280;60850;52.502;13.426;2023-02-17T02:19:36;101353.41;;;8.82;100.00
56928;BME280;60850;52.502;13.426;2023-02-17T02:22:22;101347.19;;;8.79;100.00
56928;BME280;60850;52.502;13.426;2023-02-17T02:25:05;101338.41;;;8.74;100.00
56928;BME280;60850;52.502;13.426;2023-02-17T02:27:45;101327.75;;;8.73;100.00
56928;BME280;60850;52.502;13.426;2023-02-17T02:33:21;101309.13;;;8.76;100.00
56928;BME280;60850;52.502;13.426;2023-02-17T02:35:55;101311.81;;;8.71;100.00
56928;BME280;60850;52.502;13.426;2023-02-17T02:38:28;101303.91;;;8.68;100.00
56928;BME280;60850;52.502;13.426;2023-02-17T02:41:03;101301.28;;;8.62;100.00
56928;BME280;60850;52.502;13.426;2023-02-17T02:43:32;101300.34;;;8.66;100.00
56928;BME280;60850;52.502;13.426;2023-02-17T02:45:59;101301.22;;;8.67;100.00
56928;BME280;60850;52.502;13.426;2023-02-17T02:48:27;101304.81;;;8.63;100.00
56928;BME280;60850;52.502;13.426;2023-02-17T02:51:17;101299.50;;;8.63;100.00
56928;BME280;60850;52.502;13.426;2023-02-17T02:53:57;101300.41;;;8.62;100.00
56928;BME280;60850;52.502;13.426;2023-02-17T02:56:37;101294.22;;;8.58;100.00
56928;BME280;60850;52.502;13.426;2023-02-17T02:59:15;101287.19;;;8.56;100.00
56928;BME280;60850;52.502;13.426;2023-02-17T03:01:49;101286.25;;;8.58;100.00
56928;BME280;60850;52.502;13.426;2023-02-17T03:04:27;101283.59;;;8.58;100.00
56928;BME280;60850;52.502;13.426;2023-02-17T03:07:02;101282.78;;;8.50;100.00
56928;BME280;60850;52.502;13.426;2023-02-17T03:09:32;101269.50;;;8.50;100.00
56928;BME280;60850;52.502;13.426;2023-02-17T03:11:59;101261.56;;;8.48;100.00
56928;BME280;60850;52.502;13.426;2023-02-17T03:14:26;101244.81;;;8.40;100.00
56928;BME280;60850;52.502;13.426;2023-02-17T03:16:54;101254.53;;;8.41;100.00
56928;BME280;60850;52.502;13.426;2023-02-17T03:19:24;101250.06;;;8.48;100.00
56928;BME280;60850;52.502;13.426;2023-02-17T03:21:54;101243.03;;;8.41;100.00
56928;BME280;60850;52.502;13.426;2023-02-17T03:24:23;101243.03;;;8.41;100.00
56928;BME280;60850;52.502;13.426;2023-02-17T03:26:50;101243.03;;;8.38;100.00
56928;BME280;60850;52.502;13.426;2023-02-17T03:29:17;101241.28;;;8.40;100.00
56928;BME280;60850;52.502;13.426;2023-02-17T03:31:44;101249.25;;;8.38;100.00
56928;BME280;60850;52.502;13.426;2023-02-17T03:34:11;101251.88;;;8.41;100.00
56928;BME280;60850;52.502;13.426;2023-02-17T03:36:39;101257.19;;;8.41;100.00
56928;BME280;60850;52.502;13.426;2023-02-17T03:39:06;101261.63;;;8.41;100.00
56928;BME280;60850;52.502;13.426;2023-02-17T03:41:33;101258.09;;;8.40;100.00
56928;BME280;60850;52.502;13.426;2023-02-17T03:44:00;101256.28;;;8.44;100.00
56928;BME280;60850;52.502;13.426;2023-02-17T03:46:27;101251.00;;;8.41;100.00
56928;BME280;60850;52.502;13.426;2023-02-17T03:48:54;101243.00;;;8.42;100.00
56928;BME280;60850;52.502;13.426;2023-02-17T03:51:22;101247.41;;;8.45;100.00
56928;BME280;60850;52.502;13.426;2023-02-17T03:53:51;101249.16;;;8.49;100.00
56928;BME280;60850;52.502;13.426;2023-02-17T03:56:18;101241.19;;;8.49;100.00
56928;BME280;60850;52.502;13.426;2023-02-17T03:58:45;101243.84;;;8.49;100.00
56928;BME280;60850;52.502;13.426;2023-02-17T04:01:13;101241.19;;;8.49;100.00
56928;BME280;60850;52.502;13.426;2023-02-17T04:03:41;101231.44;;;8.48;100.00
56928;BME280;60850;52.502;13.426;2023-02-17T04:06:09;101231.38;;;8.52;100.00
56928;BME280;60850;52.502;13.426;2023-02-17T04:08:36;101231.34;;;8.57;100.00
56928;BME280;60850;52.502;13.426;2023-02-17T04:11:06;101226.00;;;8.59;100.00
56928;BME280;60850;52.502;13.426;2023-02-17T04:13:33;101218.97;;;8.55;100.00
56928;BME280;60850;52.502;13.426;2023-02-17T04:16:00;101222.53;;;8.53;100.00
56928;BME280;60850;52.502;13.426;2023-02-17T04:18:29;101221.63;;;8.56;100.00
56928;BME280;60850;52.502;13.426;2023-02-17T04:20:56;101216.31;;;8.56;100.00
56928;BME280;60850;52.502;13.426;2023-02-17T04:23:23;101216.34;;;8.51;100.00
56928;BME280;60850;52.502;13.426;2023-02-17T04:25:51;101219.06;;;8.47;100.00
56928;BME280;60850;52.502;13.426;2023-02-17T04:28:19;101213.75;;;8.47;100.00
56928;BME280;60850;52.502;13.426;2023-02-17T04:30:48;101210.16;;;8.51;100.00
56928;BME280;60850;52.502;13.426;2023-02-17T04:33:16;101208.38;;;8.53;100.00
56928;BME280;60850;52.502;13.426;2023-02-17T04:35:44;101198.63;;;8.53;100.00
56928;BME280;60850;52.502;13.426;2023-02-17T04:38:11;101195.91;;;8.57;100.00
56928;BME280;60850;52.502;13.426;2023-02-17T04:40:38;101195.06;;;8.55;100.00
56928;BME280;60850;52.502;13.426;2023-02-17T04:43:05;101192.44;;;8.53;100.00
56928;BME280;60850;52.502;13.426;2023-02-17T04:45:34;101198.59;;;8.55;100.00
56928;BME280;60850;52.502;13.426;2023-02-17T04:48:02;101205.69;;;8.55;100.00
56928;BME280;60850;52.502;13.426;2023-02-17T04:50:29;101207.41;;;8.60;100.00
56928;BME280;60850;52.502;13.426;2023-02-17T04:52:56;101204.69;;;8.65;100.00
56928;BME280;60850;52.502;13.426;2023-02-17T04:55:23;101197.59;;;8.65;100.00
56928;BME280;60850;52.502;13.426;2023-02-17T04:57:50;101186.03;;;8.69;100.00
56928;BME280;60850;52.502;13.426;2023-02-17T05:00:18;101186.00;;;8.71;100.00
56928;BME280;60850;52.502;13.426;2023-02-17T05:02:46;101176.31;;;8.68;100.00
56928;BME280;60850;52.502;13.426;2023-02-17T05:05:15;101178.06;;;8.69;100.00
56928;BME280;60850;52.502;13.426;2023-02-17T05:07:43;101178.13;;;8.63;100.00
56928;BME280;60850;52.502;13.426;2023-02-17T05:10:12;101183.44;;;8.65;100.00
56928;BME280;60850;52.502;13.426;2023-02-17T05:12:39;101183.41;;;8.66;100.00
56928;BME280;60850;52.502;13.426;2023-02-17T05:15:07;101183.41;;;8.66;100.00
56928;BME280;60850;52.502;13.426;2023-02-17T05:17:34;101173.66;;;8.67;100.00
56928;BME280;60850;52.502;13.426;2023-02-17T05:20:03;101171.00;;;8.67;100.00
56928;BME280;60850;52.502;13.426;2023-02-17T05:22:30;101165.69;;;8.65;100.00
56928;BME280;60850;52.502;13.426;2023-02-17T05:24:58;101162.16;;;8.65;100.00
56928;BME280;60850;52.502;13.426;2023-02-17T05:27:24;101154.19;;;8.65;100.00
56928;BME280;60850;52.502;13.426;2023-02-17T05:29:51;101165.75;;;8.62;100.00
56928;BME280;60850;52.502;13.426;2023-02-17T05:32:18;101160.41;;;8.64;100.00
56928;BME280;60850;52.502;13.426;2023-02-17T05:34:45;101155.97;;;8.64;100.00
56928;BME280;60850;52.502;13.426;2023-02-17T05:37:14;101149.81;;;8.62;100.00
56928;BME280;60850;52.502;13.426;2023-02-17T05:39:41;101148.03;;;8.63;100.00
56928;BME280;60850;52.502;13.426;2023-02-17T05:42:08;101152.47;;;8.62;100.00
56928;BME280;60850;52.502;13.426;2023-02-17T05:44:35;101155.13;;;8.62;100.00
56928;BME280;60850;52.502;13.426;2023-02-17T05:47:02;101148.91;;;8.63;100.00
56928;BME280;60850;52.502;13.426;2023-02-17T05:49:29;101148.81;;;8.69;100.00
56928;BME280;60850;52.502;13.426;2023-02-17T05:51:59;101160.34;;;8.70;100.00
56928;BME280;60850;52.502;13.426;2023-02-17T05:54:27;101148.84;;;8.68;100.00
56928;BME280;60850;52.502;13.426;2023-02-17T05:56:54;101149.69;;;8.71;100.00
56928;BME280;60850;52.502;13.426;2023-02-17T05:59:22;101154.97;;;8.74;100.00
56928;BME280;60850;52.502;13.426;2023-02-17T06:01:49;101147.88;;;8.73;100.00
56928;BME280;60850;52.502;13.426;2023-02-17T06:04:16;101153.19;;;8.73;100.00
56928;BME280;60850;52.502;13.426;2023-02-17T06:06:43;101146.09;;;8.75;100.00
56928;BME280;60850;52.502;13.426;2023-02-17T06:09:10;101139.91;;;8.75;100.00
56928;BME280;60850;52.502;13.426;2023-02-17T06:11:38;101131.03;;;8.73;100.00
56928;BME280;60850;52.502;13.426;2023-02-17T06:14:05;101132.84;;;8.74;100.00
56928;BME280;60850;52.502;13.426;2023-02-17T06:16:32;101131.03;;;8.76;100.00
56928;BME280;60850;52.502;13.426;2023-02-17T06:18:59;101118.59;;;8.76;100.00
56928;BME280;60850;52.502;13.426;2023-02-17T06:21:26;101128.28;;;8.80;100.00
56928;BME280;60850;52.502;13.426;2023-02-17T06:23:53;101125.56;;;8.87;100.00
56928;BME280;60850;52.502;13.426;2023-02-17T06:26:20;101115.81;;;8.89;100.00
56928;BME280;60850;52.502;13.426;2023-02-17T06:28:49;101115.81;;;8.89;100.00
56928;BME280;60850;52.502;13.426;2023-02-17T06:31:15;101112.22;;;8.91;100.00
56928;BME280;60850;52.502;13.426;2023-02-17T06:33:42;101111.41;;;8.85;100.00
56928;BME280;60850;52.502;13.426;2023-02-17T06:36:09;101107.88;;;8.84;100.00
56928;BME280;60850;52.502;13.426;2023-02-17T06:38:44;101114.00;;;8.88;100.00
56928;BME280;60850;52.502;13.426;2023-02-17T06:41:17;101107.00;;;8.84;100.00
56928;BME280;60850;52.502;13.426;2023-02-17T06:43:44;101108.63;;;8.92;100.00
56928;BME280;60850;52.502;13.426;2023-02-17T06:46:12;101101.50;;;8.97;100.00
56928;BME280;60850;52.502;13.426;2023-02-17T06:48:39;101106.88;;;8.91;100.00
56928;BME280;60850;52.502;13.426;2023-02-17T06:51:06;101107.72;;;8.95;100.00
56928;BME280;60850;52.502;13.426;2023-02-17T06:53:33;101111.16;;;9.01;100.00
56928;BME280;60850;52.502;13.426;2023-02-17T06:56:00;101100.63;;;8.95;100.00
56928;BME280;60850;52.502;13.426;2023-02-17T06:58:27;101107.63;;;9.02;100.00
56928;BME280;60850;52.502;13.426;2023-02-17T07:00:53;101096.97;;;9.04;100.00
56928;BME280;60850;52.502;13.426;2023-02-17T07:03:22;101093.44;;;9.03;100.00
56928;BME280;60850;52.502;13.426;2023-02-17T07:05:49;101096.91;;;9.07;100.00
56928;BME280;60850;52.502;13.426;2023-02-17T07:08:16;101087.91;;;9.16;100.00
56928;BME280;60850;52.502;13.426;2023-02-17T07:10:43;101081.59;;;9.23;100.00
56928;BME280;60850;52.502;13.426;2023-02-17T07:13:10;101081.50;;;9.30;100.00
56928;BME280;60850;52.502;13.426;2023-02-17T07:15:36;101085.75;;;9.41;100.00
56928;BME280;60850;52.502;13.426;2023-02-17T07:18:04;101086.59;;;9.43;100.00
56928;BME280;60850;52.502;13.426;2023-02-17T07:20:32;101083.88;;;9.47;100.00
56928;BME280;60850;52.502;13.426;2023-02-17T07:23:00;101080.19;;;9.54;100.00
56928;BME280;60850;52.502;13.426;2023-02-17T07:25:26;101080.25;;;9.51;100.00
56928;BME280;60850;52.502;13.426;2023-02-17T07:27:53;101082.09;;;9.48;100.00
56928;BME280;60850;52.502;13.426;2023-02-17T07:30:20;101080.25;;;9.53;100.00
56928;BME280;60850;52.502;13.426;2023-02-17T07:32:47;101073.13;;;9.53;100.00
56928;BME280;60850;52.502;13.426;2023-02-17T07:35:14;101077.44;;;9.60;100.00
56928;BME280;60850;52.502;13.426;2023-02-17T07:37:43;101075.59;;;9.66;100.00
56928;BME280;60850;52.502;13.426;2023-02-17T07:40:10;101075.50;;;9.70;100.00
56928;BME280;60850;52.502;13.426;2023-02-17T07:42:37;101072.75;;;9.75;100.00
56928;BME280;60850;52.502;13.426;2023-02-17T07:45:05;101057.47;;;9.84;100.00
56928;BME280;60850;52.502;13.426;2023-02-17T07:47:32;101054.78;;;9.86;100.00
56928;BME280;60850;52.502;13.426;2023-02-17T07:49:59;101061.16;;;9.77;100.00
56928;BME280;60850;52.502;13.426;2023-02-17T07:52:26;101056.59;;;9.84;100.00
56928;BME280;60850;52.502;13.426;2023-02-17T07:54:54;101046.66;;;9.95;100.00
56928;BME280;60850;52.502;13.426;2023-02-17T07:57:21;101039.50;;;9.97;100.00
56928;BME280;60850;52.502;13.426;2023-02-17T07:59:48;101050.03;;;10.03;100.00
56928;BME280;60850;52.502;13.426;2023-02-17T08:02:15;101045.63;;;10.02;100.00
56928;BME280;60850;52.502;13.426;2023-02-17T08:04:42;101051.63;;;10.12;100.00
56928;BME280;60850;52.502;13.426;2023-02-17T08:07:09;101053.34;;;10.16;100.00
56928;BME280;60850;52.502;13.426;2023-02-17T08:09:36;101042.66;;;10.17;100.00
56928;BME280;60850;52.502;13.426;2023-02-17T08:12:22;101046.94;;;10.26;100.00
56928;BME280;60850;52.502;13.426;2023-02-17T08:15:09;101044.31;;;10.25;100.00
56928;BME280;60850;52.502;13.426;2023-02-17T08:17:36;101050.47;;;10.27;100.00
56928;BME280;60850;52.502;13.426;2023-02-17T08:20:05;101047.72;;;10.31;100.00
56928;BME280;60850;52.502;13.426;2023-02-17T08:22:32;101048.56;;;10.33;100.00
56928;BME280;60850;52.502;13.426;2023-02-17T08:24:59;101043.13;;;10.39;100.00
56928;BME280;60850;52.502;13.426;2023-02-17T08:27:27;101041.31;;;10.40;100.00
56928;BME280;60850;52.502;13.426;2023-02-17T08:29:54;101040.50;;;10.38;100.00
56928;BME280;60850;52.502;13.426;2023-02-17T08:32:22;101038.63;;;10.43;100.00
56928;BME280;60850;52.502;13.426;2023-02-17T08:34:49;101027.97;;;10.41;100.00
56928;BME280;60850;52.502;13.426;2023-02-17T08:37:16;101038.44;;;10.49;100.00
56928;BME280;60850;52.502;13.426;2023-02-17T08:39:42;101037.56;;;10.49;100.00
56928;BME280;60850;52.502;13.426;2023-02-17T08:42:09;101035.69;;;10.54;100.00
56928;BME280;60850;52.502;13.426;2023-02-17T08:44:38;101027.75;;;10.52;100.00
56928;BME280;60850;52.502;13.426;2023-02-17T08:47:05;101034.81;;;10.53;100.00
56928;BME280;60850;52.502;13.426;2023-02-17T08:49:33;101034.66;;;10.61;100.00
56928;BME280;60850;52.502;13.426;2023-02-17T08:52:01;101025.69;;;10.65;100.00
56928;BME280;60850;52.502;13.426;2023-02-17T08:54:28;101029.97;;;10.70;100.00
56928;BME280;60850;52.502;13.426;2023-02-17T08:56:55;101026.44;;;10.70;100.00
56928;BME280;60850;52.502;13.426;2023-02-17T08:59:23;101013.09;;;10.71;100.00
56928;BME280;60850;52.502;13.426;2023-02-17T09:01:51;101009.53;;;10.71;100.00
56928;BME280;60850;52.502;13.426;2023-02-17T09:04:18;101002.56;;;10.64;100.00
56928;BME280;60850;52.502;13.426;2023-02-17T09:06:48;100997.94;;;10.73;100.00
56928;BME280;60850;52.502;13.426;2023-02-17T09:09:18;100990.88;;;10.71;100.00
56928;BME280;60850;52.502;13.426;2023-02-17T09:11:47;100979.44;;;10.66;100.00
56928;BME280;60850;52.502;13.426;2023-02-17T09:14:14;100986.34;;;10.75;100.00
56928;BME280;60850;52.502;13.426;2023-02-17T09:16:42;100974.75;;;10.76;100.00
56928;BME280;60850;52.502;13.426;2023-02-17T09:19:10;100967.53;;;10.81;100.00
56928;BME280;60850;52.502;13.426;2023-02-17T09:21:37;100965.78;;;10.80;100.00
56928;BME280;60850;52.502;13.426;2023-02-17T09:24:04;100963.13;;;10.78;100.00
56928;BME280;60850;52.502;13.426;2023-02-17T09:26:31;100947.22;;;10.75;100.00
56928;BME280;60850;52.502;13.426;2023-02-17T09:28:59;100953.53;;;10.71;100.00
56928;BME280;60850;52.502;13.426;2023-02-17T09:31:29;100954.41;;;10.73;100.00
56928;BME280;60850;52.502;13.426;2023-02-17T09:33:57;100954.25;;;10.79;100.00
56928;BME280;60850;52.502;13.426;2023-02-17T09:36:27;100949.66;;;10.84;100.00
56928;BME280;60850;52.502;13.426;2023-02-17T09:38:55;100944.38;;;10.83;100.00
56928;BME280;60850;52.502;13.426;2023-02-17T09:41:23;100943.41;;;10.87;100.00
56928;BME280;60850;52.502;13.426;2023-02-17T09:43:52;100936.41;;;10.81;100.00
56928;BME280;60850;52.502;13.426;2023-02-17T09:46:23;100931.00;;;10.84;100.00
56928;BME280;60850;52.502;13.426;2023-02-17T09:48:56;100912.38;;;10.83;100.00
56928;BME280;60850;52.502;13.426;2023-02-17T09:51:29;100917.97;;;10.72;100.00
56928;BME280;60850;52.502;13.426;2023-02-17T09:54:04;100916.44;;;10.62;100.00
56928;BME280;60850;52.502;13.426;2023-02-17T09:56:34;100917.53;;;10.53;100.00
56928;BME280;60850;52.502;13.426;2023-02-17T09:59:08;100909.72;;;10.45;100.00
56928;BME280;60850;52.502;13.426;2023-02-17T10:01:37;100910.53;;;10.48;100.00
56928;BME280;60850;52.502;13.426;2023-02-17T10:04:09;100906.13;;;10.47;100.00
56928;BME280;60850;52.502;13.426;2023-02-17T10:06:40;100905.44;;;10.38;100.00
56928;BME280;60850;52.502;13.426;2023-02-17T10:09:13;100898.13;;;10.47;100.00
56928;BME280;60850;52.502;13.426;2023-02-17T10:11:47;100898.22;;;10.43;100.00
56928;BME280;60850;52.502;13.426;2023-02-17T10:14:16;100897.19;;;10.49;100.00
56928;BME280;60850;52.502;13.426;2023-02-17T10:16:48;100900.72;;;10.50;100.00
56928;BME280;60850;52.502;13.426;2023-02-17T10:19:22;100894.56;;;10.48;100.00
56928;BME280;60850;52.502;13.426;2023-02-17T10:21:57;100880.31;;;10.49;100.00
56928;BME280;60850;52.502;13.426;2023-02-17T10:24:27;100882.97;;;10.49;100.00
56928;BME280;60850;52.502;13.426;2023-02-17T10:27:02;100877.41;;;10.59;100.00
56928;BME280;60850;52.502;13.426;2023-02-17T10:29:42;100865.00;;;10.57;100.00
56928;BME280;60850;52.502;13.426;2023-02-17T10:32:19;100867.81;;;10.52;100.00
56928;BME280;60850;52.502;13.426;2023-02-17T10:34:57;100850.97;;;10.50;100.00
56928;BME280;60850;52.502;13.426;2023-02-17T10:37:35;100842.94;;;10.52;100.00
56928;BME280;60850;52.502;13.426;2023-02-17T10:40:10;100831.13;;;10.62;100.00
56928;BME280;60850;52.502;13.426;2023-02-17T10:42:38;100830.13;;;10.66;100.00
56928;BME280;60850;52.502;13.426;2023-02-17T10:45:12;100830.75;;;10.76;100.00
56928;BME280;60850;52.502;13.426;2023-02-17T10:47:41;100819.31;;;10.72;100.00
56928;BME280;60850;52.502;13.426;2023-02-17T10:50:16;100833.31;;;10.80;100.00
56928;BME280;60850;52.502;13.426;2023-02-17T10:52:47;100813.63;;;10.84;100.00
56928;BME280;60850;52.502;13.426;2023-02-17T10:55:20;100810.97;;;10.86;100.00
56928;BME280;60850;52.502;13.426;2023-02-17T10:57:49;100806.41;;;10.89;100.00
56928;BME280;60850;52.502;13.426;2023-02-17T11:00:19;100809.88;;;10.93;100.00
56928;BME280;60850;52.502;13.426;2023-02-17T11:02:47;100813.31;;;10.96;100.00
56928;BME280;60850;52.502;13.426;2023-02-17T11:05:23;100802.66;;;10.96;100.00
56928;BME280;60850;52.502;13.426;2023-02-17T11:07:56;100782.13;;;10.98;100.00
56928;BME280;60850;52.502;13.426;2023-02-17T11:10:27;100781.25;;;10.98;100.00
56928;BME280;60850;52.502;13.426;2023-02-17T11:12:56;100763.56;;;10.95;100.00
56928;BME280;60850;52.502;13.426;2023-02-17T11:15:26;100749.13;;;11.03;100.00
56928;BME280;60850;52.502;13.426;2023-02-17T11:17:55;100761.50;;;11.05;100.00
56928;BME280;60850;52.502;13.426;2023-02-17T11:20:33;100750.06;;;11.02;100.00
56928;BME280;60850;52.502;13.426;2023-02-17T11:23:06;100736.72;;;11.02;100.00
56928;BME280;60850;52.502;13.426;2023-02-17T11:25:35;100735.97;;;10.96;100.00
56928;BME280;60850;52.502;13.426;2023-02-17T11:28:05;100734.09;;;11.00;100.00
56928;BME280;60850;52.502;13.426;2023-02-17T11:30:33;100721.53;;;11.04;100.00
56928;BME280;60850;52.502;13.426;2023-02-17T11:33:10;100726.69;;;11.10;100.00
56928;BME280;60850;52.502;13.426;2023-02-17T11:35:48;100718.53;;;11.16;100.00
56928;BME280;60850;52.502;13.426;2023-02-17T11:38:18;100716.63;;;11.19;100.00
56928;BME280;60850;52.502;13.426;2023-02-17T11:40:54;100699.63;;;11.23;100.00
56928;BME280;60850;52.502;13.426;2023-02-17T11:43:21;100693.22;;;11.29;100.00
56928;BME280;60850;52.502;13.426;2023-02-17T11:45:57;100690.31;;;11.37;100.00
56928;BME280;60850;52.502;13.426;2023-02-17T11:48:37;100686.53;;;11.44;100.00
56928;BME280;60850;52.502;13.426;2023-02-17T11:51:13;100667.91;;;11.42;100.00
56928;BME280;60850;52.502;13.426;2023-02-17T11:53:53;100654.34;;;11.48;100.00
56928;BME280;60850;52.502;13.426;2023-02-17T11:56:29;100647.22;;;11.49;100.00
56928;BME280;60850;52.502;13.426;2023-02-17T11:59:12;100630.44;;;11.45;100.00
56928;BME280;60850;52.502;13.426;2023-02-17T12:02:00;100625.91;;;11.47;100.00
56928;BME280;60850;52.502;13.426;2023-02-17T12:04:31;100613.28;;;11.52;100.00
56928;BME280;60850;52.502;13.426;2023-02-17T12:07:23;100615.91;;;11.54;100.00
56928;BME280;60850;52.502;13.426;2023-02-17T12:10:01;100616.88;;;11.51;100.00
56928;BME280;60850;52.502;13.426;2023-02-17T12:12:35;100620.44;;;11.52;100.00
56928;BME280;60850;52.502;13.426;2023-02-17T12:15:23;100621.19;;;11.55;100.00
56928;BME280;60850;52.502;13.426;2023-02-17T12:17:58;100611.41;;;11.56;100.00
56928;BME280;60850;52.502;13.426;2023-02-17T12:20:38;100595.28;;;11.59;100.00
56928;BME280;60850;52.502;13.426;2023-02-17T12:23:20;100592.19;;;11.71;100.00
56928;BME280;60850;52.502;13.426;2023-02-17T12:25:55;100593.59;;;11.83;100.00
56928;BME280;60850;52.502;13.426;2023-02-17T12:28:39;100584.78;;;11.81;100.00
56928;BME280;60850;52.502;13.426;2023-02-17T12:31:18;100585.31;;;11.91;100.00
56928;BME280;60850;52.502;13.426;2023-02-17T12:33:55;100572.75;;;11.94;100.00
56928;BME280;60850;52.502;13.426;2023-02-17T12:36:28;100564.47;;;12.02;100.00
56928;BME280;60850;52.502;13.426;2023-02-17T12:38:58;100567.72;;;12.10;100.00
56928;BME280;60850;52.502;13.426;2023-02-17T12:41:32;100570.31;;;12.13;100.00
56928;BME280;60850;52.502;13.426;2023-02-17T12:44:03;100560.28;;;12.20;100.00
56928;BME280;60850;52.502;13.426;2023-02-17T12:46:37;100560.88;;;12.28;100.00
56928;BME280;60850;52.502;13.426;2023-02-17T12:49:10;100547.50;;;12.28;100.00
56928;BME280;60850;52.502;13.426;2023-02-17T12:51:42;100547.28;;;12.34;100.00
56928;BME280;60850;52.502;13.426;2023-02-17T12:54:16;100549.88;;;12.35;100.00